createdAt,value
2022-10-11T00:00:41.585Z,45.40
2022-10-11T00:03:12.332Z,45.40
2022-10-11T00:05:44.075Z,45.34
2022-10-11T00:08:15.421Z,45.51
2022-10-11T00:10:46.071Z,45.57
2022-10-11T00:13:16.700Z,45.55
2022-10-11T00:15:47.526Z,45.47
2022-10-11T00:18:18.606Z,45.52
2022-10-11T00:20:49.949Z,45.48
2022-10-11T00:23:20.793Z,45.49
2022-10-11T00:26:00.771Z,45.61
2022-10-11T00:28:31.854Z,45.51
2022-10-11T00:31:03.047Z,45.83
2022-10-11T00:33:34.022Z,45.65
2022-10-11T00:36:05.399Z,45.81
2022-10-11T00:38:36.548Z,45.59
2022-10-11T00:41:07.444Z,45.75
2022-10-11T00:43:38.356Z,45.60
2022-10-11T00:46:29.545Z,45.79
2022-10-11T00:49:05.838Z,45.73
2022-10-11T00:51:48.154Z,46.00
2022-10-11T00:54:25.339Z,45.90
2022-10-11T00:57:00.962Z,45.92
2022-10-11T00:59:37.456Z,45.98
2022-10-11T01:02:09.973Z,46.00
2022-10-11T01:04:40.747Z,45.88
2022-10-11T01:07:12.304Z,45.89
2022-10-11T01:09:43.132Z,46.03
2022-10-11T01:12:20.230Z,46.06
2022-10-11T01:15:02.632Z,45.98
2022-10-11T01:17:42.385Z,45.88
2022-10-11T01:20:32.329Z,45.83
2022-10-11T01:23:35.213Z,46.03
2022-10-11T01:26:41.609Z,46.02
2022-10-11T01:29:25.177Z,46.02
2022-10-11T01:32:02.989Z,46.27
2022-10-11T01:34:38.950Z,45.94
2022-10-11T01:37:17.478Z,46.17
2022-10-11T01:39:54.149Z,46.17
2022-10-11T01:42:26.714Z,46.09
2022-10-11T01:44:58.872Z,46.23
2022-10-11T01:47:29.820Z,46.53
2022-10-11T01:50:02.733Z,46.19
2022-10-11T01:52:37.766Z,46.35
2022-10-11T01:55:24.673Z,46.27
2022-10-11T01:58:10.989Z,46.22
2022-10-11T02:00:50.898Z,46.37
2022-10-11T02:03:33.191Z,46.50
2022-10-11T02:06:09.202Z,46.21
2022-10-11T02:08:50.949Z,46.22
2022-10-11T02:11:25.709Z,46.24
2022-10-11T02:14:01.450Z,46.41
2022-10-11T02:16:36.566Z,46.57
2022-10-11T02:19:09.744Z,46.48
2022-10-11T02:21:45.043Z,46.20
2022-10-11T02:24:23.430Z,46.32
2022-10-11T02:26:58.760Z,46.32
2022-10-11T02:29:32.894Z,46.39
2022-10-11T02:32:04.193Z,46.50
2022-10-11T02:34:39.352Z,46.38
2022-10-11T02:37:16.618Z,46.21
2022-10-11T02:39:52.849Z,46.38
2022-10-11T02:42:30.745Z,46.41
2022-10-11T02:45:06.255Z,46.43
2022-10-11T02:47:37.277Z,46.34
2022-10-11T02:50:09.389Z,46.35
2022-10-11T02:52:40.024Z,46.26
2022-10-11T02:55:13.290Z,46.48
2022-10-11T02:57:44.133Z,46.29
2022-10-11T03:00:16.843Z,46.37
2022-10-11T03:02:47.581Z,46.42
2022-10-11T03:05:18.662Z,46.51
2022-10-11T03:07:49.396Z,46.55
2022-10-11T03:10:20.308Z,46.61
2022-10-11T03:12:50.957Z,46.45
2022-10-11T03:15:22.079Z,46.41
2022-10-11T03:17:52.727Z,46.61
2022-10-11T03:20:23.432Z,46.45
2022-10-11T03:22:54.078Z,46.46
2022-10-11T03:25:24.738Z,46.59
2022-10-11T03:27:55.472Z,46.48
2022-10-11T03:30:26.708Z,46.22
2022-10-11T03:32:57.870Z,46.33
2022-10-11T03:35:28.914Z,46.27
2022-10-11T03:37:59.517Z,46.38
2022-10-11T03:40:30.185Z,46.47
2022-10-11T03:43:00.883Z,46.30
2022-10-11T03:45:31.541Z,46.47
2022-10-11T03:48:02.401Z,46.48
2022-10-11T03:50:33.398Z,46.57
2022-10-11T03:53:04.268Z,46.20
2022-10-11T03:55:35.126Z,46.03
2022-10-11T03:58:05.902Z,46.15
2022-10-11T04:00:36.873Z,46.22
2022-10-11T04:03:07.853Z,46.25
2022-10-11T04:05:39.315Z,46.50
2022-10-11T04:08:12.312Z,46.67
2022-10-11T04:10:43.529Z,46.61
2022-10-11T04:13:14.178Z,46.63
2022-10-11T04:15:44.828Z,46.67
2022-10-11T04:18:15.455Z,46.73
2022-10-11T04:20:46.089Z,46.80
2022-10-11T04:23:16.881Z,46.69
2022-10-11T04:25:48.390Z,46.67
2022-10-11T04:28:19.167Z,46.73
2022-10-11T04:30:50.043Z,46.78
2022-10-11T04:33:21.024Z,46.65
2022-10-11T04:35:54.242Z,46.72
2022-10-11T04:38:25.142Z,46.76
2022-10-11T04:40:55.882Z,46.60
2022-10-11T04:43:26.522Z,46.71
2022-10-11T04:45:57.254Z,46.72
2022-10-11T04:48:27.941Z,46.81
2022-10-11T04:50:58.930Z,46.60
2022-10-11T04:53:29.676Z,46.55
2022-10-11T04:56:03.616Z,46.51
2022-10-11T04:58:35.772Z,46.69
2022-10-11T05:01:06.768Z,46.73
2022-10-11T05:03:38.065Z,46.60
2022-10-11T05:06:09.901Z,46.53
2022-10-11T05:08:41.350Z,46.56
2022-10-11T05:11:16.113Z,46.55
2022-10-11T05:13:47.641Z,46.62
2022-10-11T05:16:18.810Z,46.48
2022-10-11T05:18:49.449Z,46.62
2022-10-11T05:21:21.619Z,46.48
2022-10-11T05:23:53.781Z,46.44
2022-10-11T05:26:25.954Z,46.31
2022-10-11T05:28:57.459Z,46.34
2022-10-11T05:31:28.297Z,46.40
2022-10-11T05:34:00.107Z,46.42
2022-10-11T05:36:30.837Z,46.37
2022-10-11T05:39:01.758Z,46.45
2022-10-11T05:41:32.628Z,46.45
2022-10-11T05:44:03.375Z,46.27
2022-10-11T05:46:34.103Z,46.24
2022-10-11T05:49:04.747Z,46.20
2022-10-11T05:51:35.505Z,46.39
2022-10-11T05:54:06.149Z,46.43
2022-10-11T05:56:36.790Z,46.26
2022-10-11T05:59:08.252Z,46.35
2022-10-11T06:01:39.248Z,46.28
2022-10-11T06:04:11.833Z,46.16
2022-10-11T06:06:42.592Z,46.22
2022-10-11T06:09:13.320Z,46.23
2022-10-11T06:11:45.687Z,46.25
2022-10-11T06:14:16.403Z,46.18
2022-10-11T06:16:47.039Z,46.30
2022-10-11T06:19:17.712Z,46.46
2022-10-11T06:21:48.562Z,46.31
2022-10-11T06:24:19.266Z,46.36
2022-10-11T06:26:51.364Z,46.22
2022-10-11T06:29:22.619Z,46.18
2022-10-11T06:31:53.341Z,46.29
2022-10-11T06:34:25.598Z,46.19
2022-10-11T06:36:56.436Z,46.08
2022-10-11T06:39:27.220Z,46.15
2022-10-11T06:41:58.287Z,46.13
2022-10-11T06:44:30.451Z,46.21
2022-10-11T06:47:01.152Z,46.06
2022-10-11T06:49:31.898Z,46.20
2022-10-11T06:52:02.905Z,46.13
2022-10-11T06:54:33.615Z,46.21
2022-10-11T06:57:05.054Z,46.22
2022-10-11T06:59:35.739Z,46.15
2022-10-11T07:02:06.697Z,46.07
2022-10-11T07:04:39.657Z,46.14
2022-10-11T07:07:10.337Z,46.01
2022-10-11T07:09:41.146Z,46.06
2022-10-11T07:12:12.444Z,46.15
2022-10-11T07:14:43.217Z,46.11
2022-10-11T07:17:14.285Z,46.04
2022-10-11T07:19:45.120Z,45.86
2022-10-11T07:22:15.959Z,46.10
2022-10-11T07:24:46.801Z,46.13
2022-10-11T07:27:19.487Z,46.04
2022-10-11T07:29:50.251Z,46.01
2022-10-11T07:32:21.370Z,46.11
2022-10-11T07:34:53.424Z,46.14
2022-10-11T07:37:24.324Z,46.07
2022-10-11T07:39:55.102Z,46.02
2022-10-11T07:42:25.849Z,46.08
2022-10-11T07:44:56.501Z,46.13
2022-10-11T07:47:27.336Z,46.16
2022-10-11T07:49:58.072Z,45.95
2022-10-11T07:52:28.883Z,46.00
2022-10-11T07:54:59.647Z,46.06
2022-10-11T07:57:30.465Z,46.04
2022-10-11T08:00:01.437Z,45.97
2022-10-11T08:02:32.474Z,45.97
2022-10-11T08:05:03.328Z,46.01
2022-10-11T08:07:34.103Z,46.00
2022-10-11T08:10:05.924Z,46.08
2022-10-11T08:12:36.789Z,46.05
2022-10-11T08:15:08.661Z,46.12
2022-10-11T08:17:39.408Z,46.14
2022-10-11T08:20:11.690Z,46.07
2022-10-11T08:22:42.571Z,46.00
2022-10-11T08:25:13.954Z,45.97
2022-10-11T08:27:44.766Z,45.81
2022-10-11T08:30:16.565Z,45.73
2022-10-11T08:32:47.325Z,45.79
2022-10-11T08:35:18.613Z,45.64
2022-10-11T08:37:50.077Z,45.65
2022-10-11T08:40:23.986Z,45.62
2022-10-11T08:43:02.014Z,45.75
2022-10-11T08:45:39.303Z,45.69
2022-10-11T08:48:17.428Z,45.88
2022-10-11T08:50:52.248Z,45.82
2022-10-11T08:53:30.038Z,45.70
2022-10-11T08:56:01.380Z,45.67
2022-10-11T08:58:45.792Z,45.58
2022-10-11T09:01:23.408Z,45.58
2022-10-11T09:03:55.117Z,45.56
2022-10-11T09:06:38.209Z,45.59
2022-10-11T09:09:29.926Z,45.51
2022-10-11T09:12:15.211Z,45.38
2022-10-11T09:15:18.657Z,45.52
2022-10-11T09:18:05.458Z,45.35
2022-10-11T09:20:58.446Z,45.27
2022-10-11T09:24:05.646Z,45.17
2022-10-11T09:26:43.247Z,45.18
2022-10-11T09:29:27.276Z,45.28
2022-10-11T09:32:00.199Z,45.43
2022-10-11T09:34:33.642Z,45.28
2022-10-11T09:37:11.279Z,45.13
2022-10-11T09:39:49.301Z,45.06
2022-10-11T09:42:20.145Z,45.02
2022-10-11T09:44:52.732Z,44.88
2022-10-11T09:47:27.074Z,44.89
2022-10-11T09:50:03.082Z,44.88
2022-10-11T09:52:34.329Z,44.86
2022-10-11T09:55:05.487Z,45.07
2022-10-11T09:57:39.117Z,45.00
2022-10-11T10:00:23.207Z,44.80
2022-10-11T10:02:55.958Z,44.79
2022-10-11T10:05:28.106Z,44.81
2022-10-11T10:08:25.376Z,44.72
2022-10-11T10:11:04.643Z,44.88
2022-10-11T10:13:44.631Z,44.82
2022-10-11T10:16:27.937Z,44.75
2022-10-11T10:19:01.454Z,44.77
2022-10-11T10:21:35.545Z,44.75
2022-10-11T10:24:09.899Z,44.66
2022-10-11T10:26:41.128Z,44.78
2022-10-11T10:29:20.372Z,44.73
2022-10-11T10:34:59.086Z,44.90
2022-10-11T10:37:34.688Z,44.87
2022-10-11T10:40:10.957Z,44.62
2022-10-11T10:42:41.999Z,44.69
2022-10-11T10:45:21.412Z,44.70
2022-10-11T10:48:13.122Z,44.67
2022-10-11T10:50:53.710Z,44.64
2022-10-11T10:53:32.176Z,44.71
2022-10-11T10:56:09.382Z,44.77
2022-10-11T10:58:54.922Z,44.77
2022-10-11T11:01:29.004Z,44.74
2022-10-11T11:04:07.954Z,44.64
2022-10-11T11:06:47.794Z,44.53
2022-10-11T11:09:30.687Z,44.35
2022-10-11T11:12:12.137Z,44.50
2022-10-11T11:14:54.623Z,44.36
2022-10-11T11:17:34.787Z,44.42
2022-10-11T11:20:24.736Z,44.50
2022-10-11T11:23:03.606Z,44.47
2022-10-11T11:25:45.164Z,44.46
2022-10-11T11:28:40.326Z,44.42
2022-10-11T11:31:25.654Z,44.49
2022-10-11T11:34:06.620Z,44.42
2022-10-11T11:36:43.494Z,44.54
2022-10-11T11:39:19.941Z,44.48
2022-10-11T11:41:54.893Z,44.56
2022-10-11T11:44:31.360Z,44.47
2022-10-11T11:47:06.180Z,44.33
2022-10-11T11:52:26.337Z,44.25
2022-10-11T11:55:05.822Z,44.27
2022-10-11T11:57:50.050Z,44.17
2022-10-11T12:00:24.791Z,44.19
2022-10-11T12:03:00.239Z,44.16
2022-10-11T12:05:33.299Z,44.20
2022-10-11T12:08:06.702Z,44.40
2022-10-11T12:10:39.943Z,44.28
2022-10-11T12:13:23.353Z,44.30
2022-10-11T12:16:12.760Z,44.49
2022-10-11T12:19:03.385Z,44.17
2022-10-11T12:21:36.700Z,44.22
2022-10-11T12:24:23.181Z,44.09
2022-10-11T12:26:58.134Z,44.01
2022-10-11T12:29:55.886Z,44.15
2022-10-11T12:32:52.825Z,44.32
2022-10-11T12:36:05.857Z,44.27
2022-10-11T12:38:42.050Z,44.36
2022-10-11T12:41:53.746Z,44.12
2022-10-11T12:44:28.030Z,44.34
2022-10-11T12:47:34.250Z,44.45
2022-10-11T12:50:20.911Z,44.29
2022-10-11T12:53:01.398Z,44.26
2022-10-11T12:55:43.890Z,44.29
2022-10-11T12:58:29.681Z,44.38
2022-10-11T13:01:14.055Z,44.46
2022-10-11T13:03:47.416Z,44.46
2022-10-11T13:06:20.799Z,44.24
2022-10-11T13:08:56.781Z,44.21
2022-10-11T13:11:33.573Z,44.35
2022-10-11T13:14:12.061Z,44.20
2022-10-11T13:16:58.313Z,44.52
2022-10-11T13:19:30.591Z,44.23
2022-10-11T13:22:03.017Z,44.19
2022-10-11T13:24:40.731Z,44.27
2022-10-11T13:27:20.490Z,44.14
2022-10-11T13:29:52.730Z,44.29
2022-10-11T13:32:26.256Z,44.15
2022-10-11T13:37:39.579Z,44.31
2022-10-11T13:40:16.633Z,44.30
2022-10-11T13:42:48.643Z,44.25
2022-10-11T13:45:22.090Z,44.22
2022-10-11T13:47:54.595Z,44.41
2022-10-11T13:50:32.058Z,44.52
2022-10-11T13:53:04.989Z,44.35
2022-10-11T13:55:38.219Z,44.22
2022-10-11T13:58:18.913Z,44.19
2022-10-11T14:00:57.809Z,44.16
2022-10-11T14:03:38.577Z,44.35
2022-10-11T14:06:10.141Z,44.13
2022-10-11T14:08:46.773Z,44.25
2022-10-11T14:11:33.213Z,44.06
2022-10-11T14:14:40.459Z,43.57
2022-10-11T14:17:16.531Z,42.98
2022-10-11T14:19:48.814Z,42.49
2022-10-11T14:22:20.924Z,42.13
2022-10-11T14:24:51.663Z,42.11
2022-10-11T14:27:25.374Z,41.85
2022-10-11T14:30:23.490Z,41.61
2022-10-11T14:32:49.175Z,41.45
2022-10-11T14:35:22.696Z,41.40
2022-10-11T14:37:51.884Z,41.03
2022-10-11T14:40:25.126Z,41.13
2022-10-11T14:42:57.118Z,40.96
2022-10-11T14:45:28.142Z,41.00
2022-10-11T14:47:59.143Z,41.04
2022-10-11T14:50:38.786Z,41.22
2022-10-11T14:53:09.023Z,41.24
2022-10-11T14:55:41.808Z,41.47
2022-10-11T14:58:15.365Z,41.38
2022-10-11T15:00:44.564Z,41.44
2022-10-11T15:03:15.303Z,41.56
2022-10-11T15:05:46.252Z,41.49
2022-10-11T15:08:16.895Z,41.57
2022-10-11T15:10:47.676Z,41.47
2022-10-11T15:13:18.342Z,41.45
2022-10-11T15:15:49.200Z,41.46
2022-10-11T15:18:21.333Z,41.48
2022-10-11T15:20:54.998Z,41.56
2022-10-11T15:23:25.919Z,41.65
2022-10-11T15:25:56.663Z,41.83
2022-10-11T15:28:29.988Z,41.79
2022-10-11T15:31:01.013Z,42.09
2022-10-11T15:33:31.837Z,42.05
2022-10-11T15:36:02.608Z,42.11
2022-10-11T15:38:33.670Z,42.38
2022-10-11T15:41:05.109Z,42.37
2022-10-11T15:43:36.330Z,42.35
2022-10-11T15:46:08.210Z,42.40
2022-10-11T15:48:39.588Z,42.14
2022-10-11T15:51:10.378Z,42.44
2022-10-11T15:53:41.327Z,42.36
2022-10-11T15:56:18.709Z,42.48
2022-10-11T15:58:49.656Z,42.55
2022-10-11T16:01:21.929Z,42.54
2022-10-11T16:03:53.305Z,42.70
2022-10-11T16:06:24.766Z,42.54
2022-10-11T16:08:55.678Z,42.56
2022-10-11T16:11:26.599Z,42.52
2022-10-11T16:13:57.567Z,42.54
2022-10-11T16:16:28.402Z,42.62
2022-10-11T16:18:59.274Z,42.65
2022-10-11T16:21:30.090Z,42.76
2022-10-11T16:24:01.195Z,42.88
2022-10-11T16:26:32.081Z,42.73
2022-10-11T16:29:03.299Z,42.76
2022-10-11T16:31:34.269Z,42.84
2022-10-11T16:34:05.104Z,42.73
2022-10-11T16:36:42.619Z,42.70
2022-10-11T16:39:16.615Z,42.87
2022-10-11T16:41:47.972Z,42.67
2022-10-11T16:44:20.187Z,42.76
2022-10-11T16:46:52.101Z,42.91
2022-10-11T16:49:25.437Z,43.01
2022-10-11T16:51:59.115Z,43.11
2022-10-11T16:54:30.415Z,42.85
2022-10-11T16:57:01.705Z,42.93
2022-10-11T16:59:32.653Z,43.03
2022-10-11T17:02:05.123Z,42.95
2022-10-11T17:04:35.998Z,43.05
2022-10-11T17:07:12.291Z,43.08
2022-10-11T17:09:44.608Z,43.16
2022-10-11T17:12:17.063Z,43.07
2022-10-11T17:14:48.262Z,43.11
2022-10-11T17:17:19.975Z,43.43
2022-10-11T17:19:51.530Z,43.34
2022-10-11T17:22:22.491Z,43.09
2022-10-11T17:24:53.297Z,43.03
2022-10-11T17:27:24.479Z,42.97
2022-10-11T17:29:55.653Z,43.22
2022-10-11T17:32:26.684Z,43.30
2022-10-11T17:34:59.271Z,43.33
2022-10-11T17:37:30.419Z,43.14
2022-10-11T17:40:01.225Z,43.09
2022-10-11T17:42:31.975Z,43.45
2022-10-11T17:45:02.918Z,43.11
2022-10-11T17:47:33.761Z,43.01
2022-10-11T17:50:04.993Z,43.05
2022-10-11T17:52:36.055Z,43.11
2022-10-11T17:55:08.009Z,43.03
2022-10-11T17:57:39.019Z,43.03
2022-10-11T18:00:12.164Z,42.91
2022-10-11T18:02:44.015Z,42.91
2022-10-11T18:05:16.830Z,42.83
2022-10-11T18:07:47.641Z,42.71
2022-10-11T18:10:18.602Z,42.91
2022-10-11T18:12:49.540Z,43.12
2022-10-11T18:15:20.523Z,42.95
2022-10-11T18:17:51.179Z,43.15
2022-10-11T18:20:22.437Z,42.83
2022-10-11T18:22:54.386Z,42.95
2022-10-11T18:25:25.318Z,42.93
2022-10-11T18:27:56.236Z,42.98
2022-10-11T18:30:27.377Z,43.01
2022-10-11T18:32:58.406Z,43.47
2022-10-11T18:35:29.364Z,43.28
2022-10-11T18:38:01.100Z,43.10
2022-10-11T18:40:32.414Z,43.40
2022-10-11T18:43:03.381Z,43.27
2022-10-11T18:45:34.844Z,43.45
2022-10-11T18:48:06.237Z,43.44
2022-10-11T18:50:37.425Z,43.50
2022-10-11T18:53:08.507Z,43.50
2022-10-11T18:55:40.634Z,43.70
2022-10-11T18:58:11.711Z,43.59
2022-10-11T19:00:43.226Z,43.47
2022-10-11T19:03:14.884Z,43.48
2022-10-11T19:05:46.352Z,43.41
2022-10-11T19:08:17.258Z,43.81
2022-10-11T19:10:48.262Z,43.91
2022-10-11T19:13:19.229Z,43.58
2022-10-11T19:15:50.025Z,43.72
2022-10-11T19:18:21.014Z,43.69
2022-10-11T19:20:51.940Z,43.85
2022-10-11T19:23:23.763Z,43.75
2022-10-11T19:25:59.634Z,43.53
2022-10-11T19:28:30.935Z,43.47
2022-10-11T19:31:06.927Z,43.56
2022-10-11T19:33:38.331Z,43.77
2022-10-11T19:36:12.206Z,43.75
2022-10-11T19:38:46.491Z,44.01
2022-10-11T19:41:19.452Z,43.88
2022-10-11T19:43:51.511Z,44.01
2022-10-11T19:46:44.337Z,43.93
2022-10-11T19:49:17.424Z,44.07
2022-10-11T19:51:48.497Z,43.94
2022-10-11T19:54:22.518Z,44.08
2022-10-11T19:56:53.447Z,44.02
2022-10-11T19:59:24.698Z,44.11
2022-10-11T20:01:55.548Z,44.14
2022-10-11T20:07:17.841Z,44.23
2022-10-11T20:09:48.600Z,44.40
2022-10-11T20:12:19.350Z,44.48
2022-10-11T20:14:50.142Z,44.36
2022-10-11T20:17:20.942Z,44.00
2022-10-11T20:19:52.805Z,44.12
2022-10-11T20:22:23.544Z,44.38
2022-10-11T20:24:54.334Z,44.39
2022-10-11T20:27:25.328Z,44.33
2022-10-11T20:29:56.142Z,44.62
2022-10-11T20:32:26.903Z,44.17
2022-10-11T20:34:57.577Z,44.22
2022-10-11T20:37:28.483Z,44.39
2022-10-11T20:39:59.442Z,44.39
2022-10-11T20:42:30.172Z,44.55
2022-10-11T20:45:00.810Z,44.53
2022-10-11T20:47:31.868Z,44.54
2022-10-11T20:50:02.877Z,44.50
2022-10-11T20:52:33.808Z,44.79
2022-10-11T20:55:04.925Z,44.63
2022-10-11T20:57:36.235Z,44.65
2022-10-11T21:00:08.777Z,44.59
2022-10-11T21:02:39.445Z,44.68
2022-10-11T21:05:11.411Z,44.71
2022-10-11T21:07:42.076Z,44.82
2022-10-11T21:10:13.096Z,44.79
2022-10-11T21:12:43.834Z,44.65
2022-10-11T21:15:15.182Z,44.90
2022-10-11T21:17:45.957Z,44.97
2022-10-11T21:20:16.832Z,44.90
2022-10-11T21:22:47.601Z,45.10
2022-10-11T21:25:18.787Z,44.86
2022-10-11T21:27:49.379Z,44.92
2022-10-11T21:30:20.126Z,45.03
2022-10-11T21:32:50.938Z,45.07
2022-10-11T21:35:21.597Z,44.98
2022-10-11T21:37:52.424Z,44.91
2022-10-11T21:40:23.382Z,45.06
2022-10-11T21:42:53.982Z,44.88
2022-10-11T21:45:24.958Z,45.07
2022-10-11T21:47:55.590Z,44.95
2022-10-11T21:50:26.333Z,44.93
2022-10-11T21:52:57.175Z,45.14
2022-10-11T21:55:29.618Z,45.04
2022-10-11T21:58:00.435Z,45.03
2022-10-11T22:00:31.030Z,45.32
2022-10-11T22:03:02.069Z,44.96
2022-10-11T22:05:32.728Z,45.20
2022-10-11T22:08:03.546Z,45.30
2022-10-11T22:10:35.107Z,45.20
2022-10-11T22:13:06.427Z,45.12
2022-10-11T22:15:37.380Z,45.25
2022-10-11T22:18:08.353Z,45.40
2022-10-11T22:20:39.075Z,45.21
2022-10-11T22:23:09.809Z,45.33
2022-10-11T22:25:41.622Z,45.24
2022-10-11T22:28:12.304Z,45.27
2022-10-11T22:30:43.040Z,45.45
2022-10-11T22:33:13.697Z,45.35
2022-10-11T22:35:44.368Z,45.51
2022-10-11T22:38:14.990Z,45.38
2022-10-11T22:40:45.564Z,45.52
2022-10-11T22:43:16.209Z,45.40
2022-10-11T22:45:47.288Z,45.35
2022-10-11T22:48:18.116Z,45.54
2022-10-11T22:50:48.726Z,45.54
2022-10-11T22:53:19.836Z,45.58
2022-10-11T22:55:51.005Z,45.64
2022-10-11T22:58:21.627Z,45.59
2022-10-11T23:00:52.397Z,45.88
2022-10-11T23:03:23.631Z,45.62
2022-10-11T23:05:58.665Z,45.73
2022-10-11T23:08:29.443Z,45.66
2022-10-11T23:11:05.213Z,45.66
2022-10-11T23:13:36.460Z,45.77
2022-10-11T23:16:10.752Z,45.62
2022-10-11T23:18:41.901Z,45.69
2022-10-11T23:21:13.249Z,45.78
2022-10-11T23:23:43.899Z,45.72
2022-10-11T23:26:17.048Z,45.83
2022-10-11T23:28:47.962Z,45.84
2022-10-11T23:31:19.721Z,45.80
2022-10-11T23:33:50.742Z,45.79
2022-10-11T23:36:23.819Z,45.79
2022-10-11T23:38:56.150Z,46.00
2022-10-11T23:41:29.502Z,45.90
2022-10-11T23:44:00.429Z,45.77
2022-10-11T23:46:31.132Z,45.95
2022-10-11T23:49:01.921Z,45.90
2022-10-11T23:51:32.767Z,45.95
2022-10-11T23:54:03.706Z,45.82
2022-10-11T23:56:34.720Z,45.79
2022-10-11T23:59:05.328Z,45.96
